Avondale, LA

7:55 AM CST on November 23, 2014 (GMT -0600)
Gordon Ave. | Change Station
CLOSE
Current Station
Personal Weather Station
Location: Harahan, LA
Elevation: 20 ft
Nearby Weather Stations

Elev 20 ft 29.94 °N, 90.20 °W | Updated 11 seconds ago

Rain
Rain
64.0 °F
Feels Like 64.0 °F
N
0.0
Wind Variable Wind from SSW
Gusts 2.5 mph

Today
High -- | Low -- °F
--% Chance of Precip.
Yesterday
High -- | Low -- °F
Precip. -- in
6:32 AM 5:01 PM
New Moon, 1% visible
Pressure 29.73 in
Visibility 10.0 miles
Clouds Few 1000 ft
Mostly Cloudy 8000 ft
Overcast 12000 ft
Dew Point 64 °F
Humidity 98%
Rainfall 0.33 in
Snow Depth Not available.
UV 0.0 out of 12
Pollen .50 out of 12
Air Quality Not available.
Flu Activity Not available.
SPECI KMSY 231312Z 20008KT 10SM -RA FEW010 BKN080 OVC120 18/17 A2973 RMK AO2 P0001 T01830172

More Conditions Fewer Conditions

Pressure 29.73 in
Visibility 10.0 miles
Clouds Few 1000 ft
Mostly Cloudy 8000 ft
Overcast 12000 ft
Dew Point 64 °F
Humidity 98%
Rainfall 0.33 in
Snow Depth Not available.
UV 0.0 out of 12
Pollen .50 out of 12
Air Quality Not available.
Flu Activity Not available.
SPECI KMSY 231312Z 20008KT 10SM -RA FEW010 BKN080 OVC120 18/17 A2973 RMK AO2 P0001 T01830172

More Conditions Fewer Conditions

10-Day Weather Forecast

Almanac

Astronomy

Nov. 23, 2014 Rise Set
Actual Time
Civil Twilight
Nautical Twilight
Astronomical Twilight
Moon
Length of Visible Light
Length of Day
Tomorrow will be .
, % of the Moon is Illuminated

Today's Extremes

State Highs State Lows

Community

WunderPhotos

Upload Photos

1,773,062 photos uploaded!

WunderBlogs® & News

Nearby

Air Quality

  Air Quality AQ Index Pollutant
Not available.

Snow Depth

Station Depth Elevation

Earthquake Activity

City Distance Mag. Time & Date
Minimum magnitude displayed is 2.5.

Coastal Water Temperatures

Place Temperature

Nearby Weather Stations